createdAt,value
2023-03-13T00:01:19.628Z,97334.09
2023-03-13T00:03:47.395Z,97326.06
2023-03-13T00:06:15.554Z,97330.91
2023-03-13T00:08:42.940Z,97337.31
2023-03-13T00:11:12.969Z,97329.88
2023-03-13T00:13:40.933Z,97339.31
2023-03-13T00:16:16.969Z,97332.09
2023-03-13T00:18:53.160Z,97334.34
2023-03-13T00:21:23.086Z,97324.03
2023-03-13T00:23:50.227Z,97326.16
2023-03-13T00:26:23.326Z,97323.22
2023-03-13T00:28:51.647Z,97330.91
2023-03-13T00:31:25.616Z,97319.88
2023-03-13T00:34:00.387Z,97326.78
2023-03-13T00:36:31.425Z,97316.97
2023-03-13T00:38:59.758Z,97310.78
2023-03-13T00:41:31.060Z,97316.78
2023-03-13T00:43:58.803Z,97311.41
2023-03-13T00:46:29.542Z,97308.41
2023-03-13T00:48:57.736Z,97306.44
2023-03-13T00:51:27.057Z,97302.84
2023-03-13T00:53:55.681Z,97297.34
2023-03-13T00:56:23.255Z,97296.16
2023-03-13T00:58:51.042Z,97291.88
2023-03-13T01:01:22.605Z,97284.19
2023-03-13T01:03:57.091Z,97273.25
2023-03-13T01:06:27.708Z,97282.94
2023-03-13T01:08:58.231Z,97274.41
2023-03-13T01:11:28.640Z,97262.78
2023-03-13T01:13:58.175Z,97265.53
2023-03-13T01:16:28.641Z,97262.91
2023-03-13T01:19:00.791Z,97245.84
2023-03-13T01:21:29.068Z,97247.09
2023-03-13T01:23:56.912Z,97242.19
2023-03-13T01:26:25.483Z,97241.19
2023-03-13T01:28:54.762Z,97236.63
2023-03-13T01:31:25.942Z,97235.38
2023-03-13T01:33:57.261Z,97232.38
2023-03-13T01:36:25.970Z,97221.59
2023-03-13T01:38:56.185Z,97218.13
2023-03-13T01:41:25.038Z,97214.59
2023-03-13T01:43:52.632Z,97213.13
2023-03-13T01:46:27.150Z,97208.53
2023-03-13T01:49:12.329Z,97197.16
2023-03-13T01:52:10.594Z,97192.88
2023-03-13T01:55:09.862Z,97188.59
2023-03-13T01:57:44.423Z,97183.50
2023-03-13T02:00:16.671Z,97173.34
2023-03-13T02:02:47.365Z,97173.94
2023-03-13T02:05:16.468Z,97174.69
2023-03-13T02:07:57.389Z,97170.28
2023-03-13T02:10:26.462Z,97174.69
2023-03-13T02:12:57.005Z,97164.78
2023-03-13T02:15:26.746Z,97159.69
2023-03-13T02:17:55.042Z,97162.50
2023-03-13T02:20:22.808Z,97154.78
2023-03-13T02:23:25.548Z,97147.84
2023-03-13T02:25:54.087Z,97150.09
2023-03-13T02:28:33.698Z,97147.63
2023-03-13T02:31:02.446Z,97148.25
2023-03-13T02:33:36.821Z,97152.84
2023-03-13T02:36:05.303Z,97145.41
2023-03-13T02:38:38.288Z,97142.38
2023-03-13T02:41:06.321Z,97139.28
2023-03-13T02:43:36.662Z,97136.03
2023-03-13T02:46:18.543Z,97126.59
2023-03-13T02:48:55.132Z,97134.00
2023-03-13T02:51:30.312Z,97122.16
2023-03-13T02:54:07.397Z,97117.69
2023-03-13T02:56:38.982Z,97105.28
2023-03-13T02:59:07.686Z,97084.72
2023-03-13T03:01:38.670Z,97085.09
2023-03-13T03:04:05.794Z,97080.56
2023-03-13T03:06:33.552Z,97069.63
2023-03-13T03:09:03.432Z,97077.28
2023-03-13T03:11:33.557Z,97066.25
2023-03-13T03:14:05.941Z,97058.53
2023-03-13T03:16:38.425Z,97058.44
2023-03-13T03:19:07.116Z,97060.41
2023-03-13T03:21:35.248Z,97055.78
2023-03-13T03:24:03.209Z,97054.50
2023-03-13T03:26:30.646Z,97046.28
2023-03-13T03:28:58.333Z,97066.34
2023-03-13T03:31:26.052Z,97067.22
2023-03-13T03:33:53.124Z,97061.69
2023-03-13T03:36:23.813Z,97053.50
2023-03-13T03:38:51.799Z,97065.31
2023-03-13T03:41:23.201Z,97056.97
2023-03-13T03:43:50.611Z,97059.84
2023-03-13T03:46:21.275Z,97060.09
2023-03-13T03:48:48.397Z,97056.97
2023-03-13T03:51:15.447Z,97060.28
2023-03-13T03:53:45.235Z,97059.63
2023-03-13T03:56:12.294Z,97057.63
2023-03-13T03:58:46.015Z,97056.75
2023-03-13T04:01:36.611Z,97049.03
2023-03-13T04:04:04.944Z,97053.78
2023-03-13T04:06:32.164Z,97052.31
2023-03-13T04:08:59.718Z,97054.75
2023-03-13T04:11:29.218Z,97058.03
2023-03-13T04:13:56.772Z,97070.31
2023-03-13T04:16:24.361Z,97050.94
2023-03-13T04:18:53.579Z,97055.75
2023-03-13T04:21:20.983Z,97049.41
2023-03-13T04:23:52.369Z,97035.44
2023-03-13T04:26:20.021Z,97026.84
2023-03-13T04:28:48.370Z,97013.66
2023-03-13T04:31:19.584Z,97026.09
2023-03-13T04:34:22.476Z,97002.59
2023-03-13T04:37:02.787Z,97002.16
2023-03-13T04:39:48.424Z,97001.25
2023-03-13T04:42:21.126Z,97013.22
2023-03-13T04:44:48.115Z,97003.22
2023-03-13T04:47:38.202Z,96993.44
2023-03-13T04:50:11.164Z,97006.06
2023-03-13T04:52:49.171Z,96997.78
2023-03-13T04:55:45.821Z,96996.34
2023-03-13T04:58:51.564Z,96995.06
2023-03-13T05:01:53.314Z,97003.50
2023-03-13T05:04:37.246Z,96998.66
2023-03-13T05:07:27.527Z,96997.13
2023-03-13T05:10:11.493Z,97005.81
2023-03-13T05:13:02.269Z,96994.69
2023-03-13T05:15:37.737Z,96989.25
2023-03-13T05:18:34.496Z,96989.66
2023-03-13T05:21:08.978Z,96980.38
2023-03-13T05:23:52.064Z,97001.06
2023-03-13T05:26:32.516Z,96990.72
2023-03-13T05:29:11.250Z,96990.28
2023-03-13T05:32:07.838Z,96981.16
2023-03-13T05:35:07.954Z,96993.63
2023-03-13T05:37:54.002Z,96991.81
2023-03-13T05:40:36.275Z,96988.63
2023-03-13T05:43:23.074Z,96995.63
2023-03-13T05:46:08.406Z,96986.00
2023-03-13T05:48:48.230Z,96979.84
2023-03-13T05:51:35.491Z,96974.84
2023-03-13T05:54:34.501Z,96991.72
2023-03-13T05:57:20.411Z,96984.41
2023-03-13T05:59:59.539Z,96974.53
2023-03-13T06:02:49.159Z,96990.88
2023-03-13T06:05:22.736Z,96988.19
2023-03-13T06:07:51.033Z,96978.91
2023-03-13T06:10:18.526Z,96979.88
2023-03-13T06:12:51.997Z,96976.03
2023-03-13T06:15:19.590Z,96978.41
2023-03-13T06:17:59.911Z,96982.63
2023-03-13T06:20:27.603Z,96977.44
2023-03-13T06:22:54.961Z,96987.75
2023-03-13T06:25:22.642Z,96981.13
2023-03-13T06:27:49.966Z,96974.19
2023-03-13T06:30:17.781Z,96999.47
2023-03-13T06:32:45.277Z,96992.63
2023-03-13T06:35:12.441Z,96972.75
2023-03-13T06:37:39.391Z,96971.59
2023-03-13T06:40:07.026Z,96967.47
2023-03-13T06:42:34.365Z,96968.78
2023-03-13T06:45:03.249Z,96970.69
2023-03-13T06:47:33.341Z,96971.44
2023-03-13T06:50:00.952Z,96962.88
2023-03-13T06:52:37.756Z,96972.25
2023-03-13T06:55:10.860Z,96972.63
2023-03-13T06:57:38.246Z,96977.66
2023-03-13T07:00:07.063Z,96981.56
2023-03-13T07:02:34.436Z,96973.50
2023-03-13T07:05:05.820Z,96979.28
2023-03-13T07:07:33.602Z,96986.66
2023-03-13T07:10:00.684Z,96981.59
2023-03-13T07:12:28.045Z,96991.66
2023-03-13T07:14:55.149Z,96984.91
2023-03-13T07:17:22.154Z,96998.16
2023-03-13T07:19:49.241Z,96999.53
2023-03-13T07:22:16.620Z,97000.75
2023-03-13T07:24:43.822Z,97013.38
2023-03-13T07:27:11.223Z,97016.69
2023-03-13T07:29:38.668Z,97007.94
2023-03-13T07:32:06.474Z,97011.19
2023-03-13T07:34:34.128Z,97009.25
2023-03-13T07:37:01.570Z,96991.72
2023-03-13T07:39:28.686Z,96995.47
2023-03-13T07:41:55.907Z,96991.22
2023-03-13T07:44:22.948Z,96985.97
2023-03-13T07:46:50.219Z,96989.56
2023-03-13T07:49:17.610Z,96989.47
2023-03-13T07:51:47.705Z,96984.28
2023-03-13T07:54:15.264Z,96974.63
2023-03-13T07:56:42.199Z,96977.94
2023-03-13T07:59:09.928Z,96980.00
2023-03-13T08:01:37.432Z,96964.25
2023-03-13T08:04:05.624Z,96969.94
2023-03-13T08:06:37.444Z,96958.00
2023-03-13T08:09:05.173Z,96952.72
2023-03-13T08:11:32.362Z,96944.03
2023-03-13T08:13:59.540Z,96958.16
2023-03-13T08:16:34.262Z,96943.59
2023-03-13T08:19:05.997Z,96947.97
2023-03-13T08:21:36.676Z,96933.66
2023-03-13T08:24:09.065Z,96927.53
2023-03-13T08:26:39.547Z,96914.16
2023-03-13T08:29:13.349Z,96915.78
2023-03-13T08:31:50.295Z,96908.72
2023-03-13T08:34:19.253Z,96907.34
2023-03-13T08:36:46.752Z,96915.69
2023-03-13T08:39:19.911Z,96903.53
2023-03-13T08:41:47.396Z,96913.84
2023-03-13T08:44:17.588Z,96914.31
2023-03-13T08:46:45.251Z,96923.72
2023-03-13T08:49:13.447Z,96917.13
2023-03-13T08:51:41.176Z,96905.94
2023-03-13T08:54:08.671Z,96920.22
2023-03-13T08:56:36.639Z,96917.66
2023-03-13T08:59:05.432Z,96906.28
2023-03-13T09:01:35.783Z,96908.63
2023-03-13T09:04:05.154Z,96909.13
2023-03-13T09:06:37.713Z,96906.53
2023-03-13T09:09:07.107Z,96907.66
2023-03-13T09:11:36.517Z,96910.00
2023-03-13T09:14:03.969Z,96909.53
2023-03-13T09:16:32.282Z,96900.59
2023-03-13T09:19:00.266Z,96899.78
2023-03-13T09:21:33.637Z,96901.25
2023-03-13T09:24:01.257Z,96907.94
2023-03-13T09:26:29.008Z,96905.88
2023-03-13T09:28:56.633Z,96891.66
2023-03-13T09:31:30.277Z,96894.44
2023-03-13T09:33:58.004Z,96897.22
2023-03-13T09:36:25.717Z,96885.25
2023-03-13T09:38:56.421Z,96894.34
2023-03-13T09:41:35.009Z,96886.00
2023-03-13T09:44:26.521Z,96905.84
2023-03-13T09:46:54.911Z,96893.75
2023-03-13T09:49:48.669Z,96904.72
2023-03-13T09:52:23.765Z,96902.03
2023-03-13T09:55:06.393Z,96904.06
2023-03-13T09:58:00.154Z,96901.31
2023-03-13T10:00:43.392Z,96900.75
2023-03-13T10:03:16.808Z,96908.84
2023-03-13T10:05:54.267Z,96891.03
2023-03-13T10:08:28.350Z,96890.88
2023-03-13T10:11:24.573Z,96879.88
2023-03-13T10:14:16.669Z,96877.69
2023-03-13T10:16:55.317Z,96883.56
2023-03-13T10:19:37.673Z,96865.09
2023-03-13T10:22:21.252Z,96863.97
2023-03-13T10:25:10.135Z,96867.94
2023-03-13T10:27:45.671Z,96862.34
2023-03-13T10:30:26.544Z,96858.63
2023-03-13T10:32:59.139Z,96848.75
2023-03-13T10:35:35.268Z,96833.81
2023-03-13T10:38:11.390Z,96829.94
2023-03-13T10:40:39.236Z,96837.03
2023-03-13T10:43:22.566Z,96821.97
2023-03-13T10:45:50.212Z,96826.31
2023-03-13T10:48:21.448Z,96829.78
2023-03-13T10:50:52.747Z,96805.47
2023-03-13T10:53:28.547Z,96809.69
2023-03-13T10:56:17.665Z,96806.22
2023-03-13T10:58:49.924Z,96790.16
2023-03-13T11:01:28.863Z,96791.25
2023-03-13T11:03:58.395Z,96788.25
2023-03-13T11:06:35.026Z,96783.72
2023-03-13T11:09:15.316Z,96777.00
2023-03-13T11:12:20.827Z,96781.91
2023-03-13T11:14:48.515Z,96778.00
2023-03-13T11:17:34.502Z,96771.19
2023-03-13T11:20:23.111Z,96778.69
2023-03-13T11:23:13.983Z,96770.69
2023-03-13T11:26:11.695Z,96769.31
2023-03-13T11:29:09.238Z,96764.59
2023-03-13T11:31:47.568Z,96756.53
2023-03-13T11:34:48.054Z,96753.78
2023-03-13T11:37:19.430Z,96744.75
2023-03-13T11:40:16.793Z,96730.59
2023-03-13T11:43:24.084Z,96726.47
2023-03-13T11:46:22.231Z,96708.16
2023-03-13T11:49:19.915Z,96701.63
2023-03-13T11:52:09.376Z,96710.56
2023-03-13T11:54:54.588Z,96697.75
2023-03-13T11:57:31.158Z,96676.81
2023-03-13T12:00:32.160Z,96695.25
2023-03-13T12:03:14.527Z,96691.88
2023-03-13T12:05:53.560Z,96685.22
2023-03-13T12:08:39.798Z,96662.19
2023-03-13T12:11:18.431Z,96652.28
2023-03-13T12:14:03.231Z,96648.94
2023-03-13T12:17:00.372Z,96651.19
2023-03-13T12:19:43.003Z,96648.44
2023-03-13T12:22:35.834Z,96652.19
2023-03-13T12:25:30.100Z,96646.75
2023-03-13T12:28:24.838Z,96638.75
2023-03-13T12:31:11.571Z,96626.16
2023-03-13T12:34:10.171Z,96607.63
2023-03-13T12:37:10.067Z,96593.69
2023-03-13T12:39:59.193Z,96589.13
2023-03-13T12:43:05.485Z,96575.59
2023-03-13T12:45:34.511Z,96571.03
2023-03-13T12:49:05.295Z,96551.78
2023-03-13T12:52:21.915Z,96546.06
2023-03-13T12:55:50.078Z,96530.97
2023-03-13T12:58:40.755Z,96508.84
2023-03-13T13:01:14.978Z,96502.16
2023-03-13T13:03:54.670Z,96490.78
2023-03-13T13:06:22.460Z,96480.09
2023-03-13T13:09:08.373Z,96474.63
2023-03-13T13:11:42.130Z,96475.97
2023-03-13T13:14:12.072Z,96478.59
2023-03-13T13:16:52.769Z,96475.53
2023-03-13T13:19:26.242Z,96449.78
2023-03-13T13:22:37.078Z,96445.66
2023-03-13T13:25:10.303Z,96434.06
2023-03-13T13:27:37.577Z,96432.75
2023-03-13T13:30:25.878Z,96425.66
2023-03-13T13:33:17.227Z,96417.19
2023-03-13T13:35:45.595Z,96428.56
2023-03-13T13:38:18.697Z,96422.75
2023-03-13T13:41:11.266Z,96401.97
2023-03-13T13:43:44.453Z,96396.41
2023-03-13T13:46:33.037Z,96398.06
2023-03-13T13:49:09.318Z,96393.34
2023-03-13T13:51:41.249Z,96379.75
2023-03-13T13:54:42.909Z,96366.00
2023-03-13T13:57:20.088Z,96382.91
2023-03-13T14:00:15.701Z,96358.84
2023-03-13T14:02:56.907Z,96361.34
2023-03-13T14:05:27.511Z,96358.72
2023-03-13T14:08:13.569Z,96351.53
2023-03-13T14:10:43.662Z,96343.63
2023-03-13T14:13:20.524Z,96342.06
2023-03-13T14:15:55.420Z,96346.41
2023-03-13T14:18:30.189Z,96339.66
2023-03-13T14:21:15.272Z,96331.69
2023-03-13T14:23:45.387Z,96327.59
2023-03-13T14:26:22.078Z,96301.59
2023-03-13T14:29:02.846Z,96319.47
2023-03-13T14:31:38.492Z,96312.19
2023-03-13T14:34:12.556Z,96299.31
2023-03-13T14:36:47.602Z,96298.06
2023-03-13T14:39:21.135Z,96277.75
2023-03-13T14:41:50.110Z,96277.88
2023-03-13T14:44:26.174Z,96276.81
2023-03-13T14:47:05.188Z,96253.00
2023-03-13T14:49:33.159Z,96256.25
2023-03-13T14:52:20.341Z,96258.09
2023-03-13T14:54:56.766Z,96243.63
2023-03-13T14:57:27.618Z,96241.41
2023-03-13T14:59:56.412Z,96237.38
2023-03-13T15:02:31.916Z,96226.81
2023-03-13T15:05:03.852Z,96217.22
2023-03-13T15:07:53.024Z,96213.44
2023-03-13T15:10:25.360Z,96196.66
2023-03-13T15:12:53.145Z,96187.41
2023-03-13T15:15:20.340Z,96189.19
2023-03-13T15:17:47.637Z,96178.00
2023-03-13T15:20:16.470Z,96174.97
2023-03-13T15:22:46.406Z,96167.53
2023-03-13T15:25:22.188Z,96155.34
2023-03-13T15:27:50.574Z,96134.53
2023-03-13T15:30:23.553Z,96141.59
2023-03-13T15:32:51.815Z,96130.69
2023-03-13T15:35:28.445Z,96121.00
2023-03-13T15:38:00.441Z,96115.22
2023-03-13T15:40:28.476Z,96114.66
2023-03-13T15:42:56.407Z,96104.44
2023-03-13T15:45:23.448Z,96104.97
2023-03-13T15:47:50.416Z,96103.03
2023-03-13T15:50:22.534Z,96098.03
2023-03-13T15:52:49.657Z,96103.69
2023-03-13T15:55:17.017Z,96101.97
2023-03-13T15:57:50.245Z,96082.50
2023-03-13T16:00:25.447Z,96079.50
2023-03-13T16:02:52.685Z,96087.63
2023-03-13T16:05:19.645Z,96066.53
2023-03-13T16:07:47.328Z,96071.19
2023-03-13T16:10:25.698Z,96061.34
2023-03-13T16:12:53.799Z,96057.75
2023-03-13T16:15:21.712Z,96049.50
2023-03-13T16:17:49.116Z,96046.97
2023-03-13T16:20:21.524Z,96047.41
2023-03-13T16:22:48.620Z,96039.72
2023-03-13T16:25:16.026Z,96033.63
2023-03-13T16:27:43.311Z,96038.09
2023-03-13T16:30:32.472Z,96021.41
2023-03-13T16:33:00.515Z,96019.22
2023-03-13T16:35:29.129Z,96020.16
2023-03-13T16:37:57.412Z,96015.28
2023-03-13T16:40:31.102Z,96012.31
2023-03-13T16:42:58.144Z,96010.22
2023-03-13T16:45:25.131Z,96012.56
2023-03-13T16:47:52.421Z,96012.41
2023-03-13T16:50:32.249Z,96010.78
2023-03-13T16:52:59.522Z,96017.53
2023-03-13T16:55:31.449Z,96007.66
2023-03-13T16:57:59.222Z,96004.72
2023-03-13T17:00:30.237Z,96008.97
2023-03-13T17:02:59.044Z,96015.31
2023-03-13T17:05:29.449Z,96001.56
2023-03-13T17:07:56.549Z,96001.53
2023-03-13T17:10:28.499Z,95979.38
2023-03-13T17:12:55.635Z,95971.47
2023-03-13T17:15:24.760Z,95979.25
2023-03-13T17:17:54.237Z,95979.78
2023-03-13T17:20:29.624Z,95974.13
2023-03-13T17:22:57.031Z,95970.38
2023-03-13T17:25:24.924Z,95959.41
2023-03-13T17:27:52.069Z,95967.69
2023-03-13T17:30:22.161Z,95961.63
2023-03-13T17:32:50.334Z,95952.53
2023-03-13T17:35:18.764Z,95943.53
2023-03-13T17:37:46.592Z,95937.16
2023-03-13T17:40:26.743Z,95943.56
2023-03-13T17:42:55.724Z,95930.16
2023-03-13T17:45:23.009Z,95926.63
2023-03-13T17:47:50.364Z,95931.63
2023-03-13T17:50:23.431Z,95914.75
2023-03-13T17:52:51.371Z,95920.69
2023-03-13T17:55:18.452Z,95915.13
2023-03-13T17:57:45.604Z,95911.44
2023-03-13T18:00:28.855Z,95907.91
2023-03-13T18:02:56.348Z,95895.66
2023-03-13T18:05:23.520Z,95882.81
2023-03-13T18:07:51.637Z,95870.16
2023-03-13T18:10:23.577Z,95867.16
2023-03-13T18:12:51.608Z,95873.72
2023-03-13T18:15:20.962Z,95856.69
2023-03-13T18:17:48.173Z,95866.19
2023-03-13T18:20:29.569Z,95847.53
2023-03-13T18:23:00.141Z,95845.19
2023-03-13T18:25:30.377Z,95834.88
2023-03-13T18:27:58.300Z,95841.47
2023-03-13T18:30:27.658Z,95846.75
2023-03-13T18:32:54.946Z,95858.69
2023-03-13T18:35:22.365Z,95881.63
2023-03-13T18:37:49.698Z,95889.50
2023-03-13T18:40:26.600Z,95897.03
2023-03-13T18:42:53.580Z,95924.59
2023-03-13T18:45:23.388Z,95987.63
2023-03-13T18:47:50.779Z,96051.72
2023-03-13T18:50:26.170Z,96069.72
2023-03-13T18:52:58.651Z,96049.13
2023-03-13T18:55:28.860Z,96045.00
2023-03-13T18:57:56.591Z,96056.50
2023-03-13T19:00:30.035Z,96100.09
2023-03-13T19:02:57.270Z,96127.81
2023-03-13T19:05:24.483Z,96106.47
2023-03-13T19:07:51.596Z,96055.91
2023-03-13T19:10:24.029Z,96048.75
2023-03-13T19:12:52.341Z,96072.25
2023-03-13T19:15:21.900Z,96055.41
2023-03-13T19:17:48.814Z,95990.19
2023-03-13T19:20:19.848Z,96002.28
2023-03-13T19:22:47.156Z,95994.47
2023-03-13T19:25:17.080Z,95978.69
2023-03-13T19:27:44.906Z,95952.34
2023-03-13T19:30:24.912Z,95977.09
2023-03-13T19:32:52.578Z,95966.75
2023-03-13T19:35:21.956Z,95951.16
2023-03-13T19:37:49.643Z,95956.38
2023-03-13T19:40:23.934Z,96001.22
2023-03-13T19:42:50.964Z,96012.16
2023-03-13T19:45:19.015Z,96021.22
2023-03-13T19:47:45.947Z,96034.34
2023-03-13T19:50:25.813Z,96055.88
2023-03-13T19:52:52.728Z,96058.09
2023-03-13T19:55:19.617Z,96074.66
2023-03-13T19:57:46.642Z,96086.38
2023-03-13T20:00:25.389Z,96164.75
2023-03-13T20:02:54.829Z,96162.50
2023-03-13T20:05:23.249Z,96127.06
2023-03-13T20:07:53.221Z,96126.53
2023-03-13T20:10:21.739Z,96112.34
2023-03-13T20:12:48.667Z,96137.97
2023-03-13T20:15:15.789Z,96182.31
2023-03-13T20:17:42.690Z,96255.84
2023-03-13T20:20:13.532Z,96263.63
2023-03-13T20:22:40.875Z,96274.13
2023-03-13T20:25:08.503Z,96302.19
2023-03-13T20:27:36.200Z,96315.72
2023-03-13T20:30:03.988Z,96304.47
2023-03-13T20:32:31.580Z,96327.34
2023-03-13T20:34:59.040Z,96351.69
2023-03-13T20:37:26.527Z,96355.84
2023-03-13T20:39:54.007Z,96355.25
2023-03-13T20:42:22.646Z,96353.06
2023-03-13T20:44:50.096Z,96372.72
2023-03-13T20:47:17.872Z,96358.38
2023-03-13T20:49:45.272Z,96369.94
2023-03-13T20:52:12.677Z,96366.03
2023-03-13T20:54:40.225Z,96368.78
2023-03-13T20:57:08.773Z,96367.41
2023-03-13T20:59:36.170Z,96373.53
2023-03-13T21:02:03.716Z,96365.59
2023-03-13T21:04:31.486Z,96353.09
2023-03-13T21:07:04.787Z,96343.84
2023-03-13T21:09:33.755Z,96338.34
2023-03-13T21:12:01.784Z,96331.72
2023-03-13T21:14:29.382Z,96335.13
2023-03-13T21:16:56.739Z,96333.94
2023-03-13T21:19:23.668Z,96339.13
2023-03-13T21:21:52.058Z,96348.09
2023-03-13T21:24:19.456Z,96348.81
2023-03-13T21:26:46.911Z,96334.72
2023-03-13T21:29:14.967Z,96319.53
2023-03-13T21:31:42.425Z,96317.28
2023-03-13T21:34:10.604Z,96364.09
2023-03-13T21:36:37.605Z,96381.75
2023-03-13T21:39:08.031Z,96379.59
2023-03-13T21:41:35.502Z,96385.38
2023-03-13T21:44:03.554Z,96347.09
2023-03-13T21:46:33.280Z,96354.91
2023-03-13T21:49:01.206Z,96341.09
2023-03-13T21:51:29.250Z,96318.06
2023-03-13T21:53:56.673Z,96298.66
2023-03-13T21:56:24.060Z,96243.53
2023-03-13T21:58:51.198Z,96242.53
2023-03-13T22:01:18.670Z,96246.22
2023-03-13T22:03:46.038Z,96257.53
2023-03-13T22:06:16.984Z,96250.59
2023-03-13T22:08:45.483Z,96243.59
2023-03-13T22:11:12.721Z,96217.97
2023-03-13T22:13:39.872Z,96177.31
2023-03-13T22:16:08.076Z,96178.38
2023-03-13T22:18:35.092Z,96176.25
2023-03-13T22:21:02.819Z,96147.31
2023-03-13T22:23:30.425Z,96129.00
2023-03-13T22:25:59.138Z,96114.63
2023-03-13T22:28:26.840Z,96139.91
2023-03-13T22:30:54.215Z,96144.84
2023-03-13T22:33:21.417Z,96140.66
2023-03-13T22:35:52.504Z,96124.38
2023-03-13T22:38:20.636Z,96135.59
2023-03-13T22:40:49.091Z,96147.78
2023-03-13T22:43:16.506Z,96141.97
2023-03-13T22:45:43.501Z,96131.31
2023-03-13T22:48:11.095Z,96117.97
2023-03-13T22:50:38.466Z,96097.94
2023-03-13T22:53:05.439Z,96093.91
2023-03-13T22:55:33.405Z,96115.13
2023-03-13T22:58:01.244Z,96105.16
2023-03-13T23:00:28.831Z,96121.72
2023-03-13T23:02:55.985Z,96107.28
2023-03-13T23:05:23.153Z,96132.78
2023-03-13T23:07:51.004Z,96132.63
2023-03-13T23:10:19.315Z,96135.91
2023-03-13T23:12:46.624Z,96155.72
2023-03-13T23:15:14.589Z,96151.66
2023-03-13T23:17:41.610Z,96176.25
2023-03-13T23:20:16.227Z,96172.50
2023-03-13T23:22:45.264Z,96171.19
2023-03-13T23:25:13.724Z,96159.34
2023-03-13T23:27:41.925Z,96177.28
2023-03-13T23:30:12.378Z,96181.56
2023-03-13T23:32:42.763Z,96184.56
2023-03-13T23:35:11.052Z,96176.47
2023-03-13T23:37:39.392Z,96167.44
2023-03-13T23:40:10.394Z,96142.31
2023-03-13T23:42:37.448Z,96127.59
2023-03-13T23:45:05.635Z,96140.97
2023-03-13T23:47:34.016Z,96164.91
2023-03-13T23:50:01.428Z,96159.41
2023-03-13T23:52:28.461Z,96184.81
2023-03-13T23:54:55.528Z,96204.31
2023-03-13T23:57:22.905Z,96217.19
2023-03-13T23:59:51.605Z,96227.72
